sensor_id;sensor_type;location;lat;lon;timestamp;pressure;altitude;pressure_sealevel;temperature;humidity
68226;BME280;55045;49.410;11.030;2023-05-27T00:01:31;98827.47;;;13.63;100.00
68226;BME280;55045;49.410;11.030;2023-05-27T00:04:35;98833.22;;;13.69;100.00
68226;BME280;55045;49.410;11.030;2023-05-27T00:07:39;98824.84;;;13.63;100.00
68226;BME280;55045;49.410;11.030;2023-05-27T00:10:43;98826.59;;;13.45;100.00
68226;BME280;55045;49.410;11.030;2023-05-27T00:13:46;98831.41;;;13.35;100.00
68226;BME280;55045;49.410;11.030;2023-05-27T00:16:50;98829.81;;;13.33;100.00
68226;BME280;55045;49.410;11.030;2023-05-27T00:19:53;98833.91;;;13.01;100.00
68226;BME280;55045;49.410;11.030;2023-05-27T00:22:58;98837.06;;;13.26;100.00
68226;BME280;55045;49.410;11.030;2023-05-27T00:26:02;98834.25;;;13.12;100.00
68226;BME280;55045;49.410;11.030;2023-05-27T00:29:08;98832.91;;;13.03;100.00
68226;BME280;55045;49.410;11.030;2023-05-27T00:32:11;98830.22;;;13.05;100.00
68226;BME280;55045;49.410;11.030;2023-05-27T00:35:14;98831.56;;;12.94;100.00
68226;BME280;55045;49.410;11.030;2023-05-27T00:38:19;98834.97;;;12.78;100.00
68226;BME280;55045;49.410;11.030;2023-05-27T00:41:22;98834.75;;;12.82;100.00
68226;BME280;55045;49.410;11.030;2023-05-27T00:44:26;98834.19;;;12.57;100.00
68226;BME280;55045;49.410;11.030;2023-05-27T00:47:31;98839.38;;;12.57;100.00
68226;BME280;55045;49.410;11.030;2023-05-27T00:50:35;98839.09;;;12.63;100.00
68226;BME280;55045;49.410;11.030;2023-05-27T00:53:41;98831.41;;;12.41;100.00
68226;BME280;55045;49.410;11.030;2023-05-27T00:56:46;98840.09;;;12.60;100.00
68226;BME280;55045;49.410;11.030;2023-05-27T00:59:49;98837.22;;;12.27;100.00
68226;BME280;55045;49.410;11.030;2023-05-27T01:02:53;98826.03;;;12.05;100.00
68226;BME280;55045;49.410;11.030;2023-05-27T01:06:05;98831.03;;;12.30;100.00
68226;BME280;55045;49.410;11.030;2023-05-27T01:09:18;98827.00;;;12.02;100.00
68226;BME280;55045;49.410;11.030;2023-05-27T01:12:29;98826.44;;;11.96;100.00
68226;BME280;55045;49.410;11.030;2023-05-27T01:15:35;98830.59;;;12.00;100.00
68226;BME280;55045;49.410;11.030;2023-05-27T01:18:39;98822.94;;;11.97;100.00
68226;BME280;55045;49.410;11.030;2023-05-27T01:21:47;98819.75;;;11.90;100.00
68226;BME280;55045;49.410;11.030;2023-05-27T01:24:54;98746.75;;;11.54;100.00
68226;BME280;55045;49.410;11.030;2023-05-27T01:27:57;98809.91;;;11.76;100.00
68226;BME280;55045;49.410;11.030;2023-05-27T01:31:07;98815.34;;;11.70;100.00
68226;BME280;55045;49.410;11.030;2023-05-27T01:34:15;98807.81;;;11.86;100.00
68226;BME280;55045;49.410;11.030;2023-05-27T01:37:22;98811.13;;;11.68;100.00
68226;BME280;55045;49.410;11.030;2023-05-27T01:40:28;98808.66;;;11.65;100.00
68226;BME280;55045;49.410;11.030;2023-05-27T01:43:32;98807.69;;;11.67;100.00
68226;BME280;55045;49.410;11.030;2023-05-27T01:46:37;98803.50;;;11.63;100.00
68226;BME280;55045;49.410;11.030;2023-05-27T01:49:40;98724.81;;;11.81;100.00
68226;BME280;55045;49.410;11.030;2023-05-27T01:52:43;98799.13;;;11.65;100.00
68226;BME280;55045;49.410;11.030;2023-05-27T01:55:48;98728.16;;;11.22;100.00
68226;BME280;55045;49.410;11.030;2023-05-27T01:58:52;98799.22;;;11.62;100.00
68226;BME280;55045;49.410;11.030;2023-05-27T02:01:56;98803.97;;;11.73;100.00
68226;BME280;55045;49.410;11.030;2023-05-27T02:04:59;98801.47;;;11.92;100.00
68226;BME280;55045;49.410;11.030;2023-05-27T02:08:03;98797.59;;;11.81;100.00
68226;BME280;55045;49.410;11.030;2023-05-27T02:11:08;98795.91;;;11.59;100.00
68226;BME280;55045;49.410;11.030;2023-05-27T02:14:11;98794.22;;;11.58;100.00
68226;BME280;55045;49.410;11.030;2023-05-27T02:17:15;98713.97;;;11.09;100.00
68226;BME280;55045;49.410;11.030;2023-05-27T02:20:18;98790.34;;;11.68;100.00
68226;BME280;55045;49.410;11.030;2023-05-27T02:23:22;98798.38;;;11.62;100.00
68226;BME280;55045;49.410;11.030;2023-05-27T02:26:27;98792.25;;;11.42;100.00
68226;BME280;55045;49.410;11.030;2023-05-27T02:29:30;98790.41;;;11.46;100.00
68226;BME280;55045;49.410;11.030;2023-05-27T02:32:33;98798.81;;;11.51;100.00
68226;BME280;55045;49.410;11.030;2023-05-27T02:35:37;98804.31;;;11.65;100.00
68226;BME280;55045;49.410;11.030;2023-05-27T02:38:41;98801.25;;;11.56;100.00
68226;BME280;55045;49.410;11.030;2023-05-27T02:41:45;98800.78;;;11.46;100.00
68226;BME280;55045;49.410;11.030;2023-05-27T02:44:49;98804.00;;;11.09;100.00
68226;BME280;55045;49.410;11.030;2023-05-27T02:47:52;98802.25;;;11.09;100.00
68226;BME280;55045;49.410;11.030;2023-05-27T02:50:57;98799.56;;;11.33;100.00
68226;BME280;55045;49.410;11.030;2023-05-27T02:54:01;98795.69;;;11.43;100.00
68226;BME280;55045;49.410;11.030;2023-05-27T02:57:06;98799.94;;;11.02;100.00
68226;BME280;55045;49.410;11.030;2023-05-27T03:00:10;98805.88;;;11.05;100.00
68226;BME280;55045;49.410;11.030;2023-05-27T03:03:15;98802.72;;;10.75;100.00
68226;BME280;55045;49.410;11.030;2023-05-27T03:06:18;98796.44;;;10.81;100.00
68226;BME280;55045;49.410;11.030;2023-05-27T03:09:22;98795.09;;;10.92;100.00
68226;BME280;55045;49.410;11.030;2023-05-27T03:12:26;98791.16;;;10.84;100.00
68226;BME280;55045;49.410;11.030;2023-05-27T03:15:30;98793.06;;;10.79;100.00
68226;BME280;55045;49.410;11.030;2023-05-27T03:18:34;98785.09;;;10.83;100.00
68226;BME280;55045;49.410;11.030;2023-05-27T03:21:37;98763.44;;;10.39;100.00
68226;BME280;55045;49.410;11.030;2023-05-27T03:24:41;98789.13;;;11.12;100.00
68226;BME280;55045;49.410;11.030;2023-05-27T03:27:45;98693.69;;;10.31;100.00
68226;BME280;55045;49.410;11.030;2023-05-27T03:34:29;98785.47;;;10.51;100.00
68226;BME280;55045;49.410;11.030;2023-05-27T03:37:32;98787.06;;;10.06;100.00
68226;BME280;55045;49.410;11.030;2023-05-27T03:40:38;98793.09;;;10.32;100.00
68226;BME280;55045;49.410;11.030;2023-05-27T03:43:43;98784.09;;;10.41;100.00
68226;BME280;55045;49.410;11.030;2023-05-27T03:46:48;98786.19;;;10.31;100.00
68226;BME280;55045;49.410;11.030;2023-05-27T03:49:53;98795.22;;;10.19;100.00
68226;BME280;55045;49.410;11.030;2023-05-27T03:52:56;98784.97;;;10.16;100.00
68226;BME280;55045;49.410;11.030;2023-05-27T03:55:59;98792.22;;;10.31;100.00
68226;BME280;55045;49.410;11.030;2023-05-27T03:59:08;98789.72;;;10.53;100.00
68226;BME280;55045;49.410;11.030;2023-05-27T04:02:11;98789.81;;;10.74;100.00
68226;BME280;55045;49.410;11.030;2023-05-27T04:05:16;98791.78;;;10.19;100.00
68226;BME280;55045;49.410;11.030;2023-05-27T04:08:20;98787.78;;;10.35;100.00
68226;BME280;55045;49.410;11.030;2023-05-27T04:11:26;98789.59;;;10.33;100.00
68226;BME280;55045;49.410;11.030;2023-05-27T04:14:30;98792.19;;;10.56;100.00
68226;BME280;55045;49.410;11.030;2023-05-27T04:17:33;98788.00;;;10.52;100.00
68226;BME280;55045;49.410;11.030;2023-05-27T04:20:39;98793.53;;;10.43;100.00
68226;BME280;55045;49.410;11.030;2023-05-27T04:23:47;98800.19;;;10.74;100.00
68226;BME280;55045;49.410;11.030;2023-05-27T04:26:50;98793.53;;;10.66;100.00
68226;BME280;55045;49.410;11.030;2023-05-27T04:29:54;98796.28;;;11.07;100.00
68226;BME280;55045;49.410;11.030;2023-05-27T04:32:58;98801.53;;;11.28;100.00
68226;BME280;55045;49.410;11.030;2023-05-27T04:36:03;98796.28;;;10.85;100.00
68226;BME280;55045;49.410;11.030;2023-05-27T04:39:15;98781.19;;;10.95;100.00
68226;BME280;55045;49.410;11.030;2023-05-27T04:42:20;98805.31;;;11.41;100.00
68226;BME280;55045;49.410;11.030;2023-05-27T04:45:26;98801.19;;;11.57;100.00
68226;BME280;55045;49.410;11.030;2023-05-27T04:48:31;98804.75;;;11.54;100.00
68226;BME280;55045;49.410;11.030;2023-05-27T04:51:38;98805.78;;;11.50;100.00
68226;BME280;55045;49.410;11.030;2023-05-27T04:54:42;98801.22;;;11.98;100.00
68226;BME280;55045;49.410;11.030;2023-05-27T04:57:56;98796.53;;;11.65;100.00
68226;BME280;55045;49.410;11.030;2023-05-27T05:01:00;98801.56;;;11.90;100.00
68226;BME280;55045;49.410;11.030;2023-05-27T05:04:03;98802.25;;;11.94;100.00
68226;BME280;55045;49.410;11.030;2023-05-27T05:07:33;98809.59;;;12.04;100.00
68226;BME280;55045;49.410;11.030;2023-05-27T05:10:37;98806.03;;;12.07;100.00
68226;BME280;55045;49.410;11.030;2023-05-27T05:13:41;98807.91;;;12.03;100.00
68226;BME280;55045;49.410;11.030;2023-05-27T05:16:44;98813.56;;;12.13;100.00
68226;BME280;55045;49.410;11.030;2023-05-27T05:19:49;98814.28;;;12.17;100.00
68226;BME280;55045;49.410;11.030;2023-05-27T05:22:54;98816.44;;;12.26;99.87
68226;BME280;55045;49.410;11.030;2023-05-27T05:25:58;98822.09;;;12.35;100.00
68226;BME280;55045;49.410;11.030;2023-05-27T05:29:10;98814.72;;;12.45;98.98
68226;BME280;55045;49.410;11.030;2023-05-27T05:32:13;98817.41;;;12.44;100.00
68226;BME280;55045;49.410;11.030;2023-05-27T05:35:17;98818.84;;;12.69;96.93
68226;BME280;55045;49.410;11.030;2023-05-27T05:38:28;98826.94;;;12.82;100.00
68226;BME280;55045;49.410;11.030;2023-05-27T05:41:32;98817.28;;;12.84;97.39
68226;BME280;55045;49.410;11.030;2023-05-27T05:44:36;98818.00;;;12.88;97.98
68226;BME280;55045;49.410;11.030;2023-05-27T05:47:41;98824.06;;;12.88;98.11
68226;BME280;55045;49.410;11.030;2023-05-27T05:50:48;98786.69;;;12.89;94.03
68226;BME280;55045;49.410;11.030;2023-05-27T05:53:54;98819.13;;;13.37;94.67
68226;BME280;55045;49.410;11.030;2023-05-27T05:56:58;98811.66;;;13.48;92.49
68226;BME280;55045;49.410;11.030;2023-05-27T06:00:03;98819.59;;;13.81;91.68
68226;BME280;55045;49.410;11.030;2023-05-27T06:03:07;98810.28;;;14.10;93.00
68226;BME280;55045;49.410;11.030;2023-05-27T06:06:21;98819.13;;;13.91;89.84
68226;BME280;55045;49.410;11.030;2023-05-27T06:09:44;98820.44;;;14.32;88.82
68226;BME280;55045;49.410;11.030;2023-05-27T06:12:54;98816.06;;;14.33;88.26
68226;BME280;55045;49.410;11.030;2023-05-27T06:15:58;98824.19;;;14.93;86.46
68226;BME280;55045;49.410;11.030;2023-05-27T06:19:02;98818.28;;;15.05;86.23
68226;BME280;55045;49.410;11.030;2023-05-27T06:22:05;98825.28;;;14.89;84.90
68226;BME280;55045;49.410;11.030;2023-05-27T06:25:39;98825.84;;;14.78;86.32
68226;BME280;55045;49.410;11.030;2023-05-27T06:28:43;98816.72;;;15.48;85.22
68226;BME280;55045;49.410;11.030;2023-05-27T06:31:48;98814.72;;;15.38;83.13
68226;BME280;55045;49.410;11.030;2023-05-27T06:34:52;98812.00;;;15.55;82.30
68226;BME280;55045;49.410;11.030;2023-05-27T06:37:58;98812.97;;;15.84;82.23
68226;BME280;55045;49.410;11.030;2023-05-27T06:41:03;98815.50;;;16.14;80.94
68226;BME280;55045;49.410;11.030;2023-05-27T06:44:08;98816.44;;;15.99;80.29
68226;BME280;55045;49.410;11.030;2023-05-27T06:47:26;98811.75;;;15.90;78.95
68226;BME280;55045;49.410;11.030;2023-05-27T06:50:29;98806.75;;;16.29;80.70
68226;BME280;55045;49.410;11.030;2023-05-27T06:53:33;98806.44;;;16.34;78.50
68226;BME280;55045;49.410;11.030;2023-05-27T06:56:59;98810.47;;;16.11;79.24
68226;BME280;55045;49.410;11.030;2023-05-27T07:00:30;98804.13;;;16.15;77.31
68226;BME280;55045;49.410;11.030;2023-05-27T07:03:54;98815.63;;;16.84;73.56
68226;BME280;55045;49.410;11.030;2023-05-27T07:07:09;98803.66;;;16.51;75.95
68226;BME280;55045;49.410;11.030;2023-05-27T07:10:13;98816.41;;;16.72;74.84
68226;BME280;55045;49.410;11.030;2023-05-27T07:13:18;98816.19;;;17.16;73.74
68226;BME280;55045;49.410;11.030;2023-05-27T07:16:25;98806.28;;;17.21;73.23
68226;BME280;55045;49.410;11.030;2023-05-27T07:19:30;98809.88;;;17.06;74.56
68226;BME280;55045;49.410;11.030;2023-05-27T07:22:38;98792.28;;;17.35;72.44
68226;BME280;55045;49.410;11.030;2023-05-27T07:25:42;98802.59;;;17.38;72.80
68226;BME280;55045;49.410;11.030;2023-05-27T07:28:47;98798.41;;;17.21;75.02
68226;BME280;55045;49.410;11.030;2023-05-27T07:32:00;98792.97;;;18.03;73.07
68226;BME280;55045;49.410;11.030;2023-05-27T07:35:07;98785.59;;;17.70;70.28
68226;BME280;55045;49.410;11.030;2023-05-27T07:38:11;98789.38;;;17.79;72.07
68226;BME280;55045;49.410;11.030;2023-05-27T07:41:14;98781.63;;;17.50;71.84
68226;BME280;55045;49.410;11.030;2023-05-27T07:44:20;98778.47;;;17.85;69.83
68226;BME280;55045;49.410;11.030;2023-05-27T07:47:23;98777.63;;;17.72;69.44
68226;BME280;55045;49.410;11.030;2023-05-27T07:50:30;98775.31;;;17.80;69.08
68226;BME280;55045;49.410;11.030;2023-05-27T07:53:38;98778.19;;;17.63;71.82
68226;BME280;55045;49.410;11.030;2023-05-27T07:56:41;98778.69;;;17.82;70.80
68226;BME280;55045;49.410;11.030;2023-05-27T07:59:46;98776.50;;;18.01;69.20
68226;BME280;55045;49.410;11.030;2023-05-27T08:02:50;98782.34;;;18.43;68.06
68226;BME280;55045;49.410;11.030;2023-05-27T08:05:57;98775.44;;;18.17;69.16
68226;BME280;55045;49.410;11.030;2023-05-27T08:09:09;98779.94;;;18.65;69.55
68226;BME280;55045;49.410;11.030;2023-05-27T08:12:37;98767.31;;;18.70;69.20
68226;BME280;55045;49.410;11.030;2023-05-27T08:16:10;98754.38;;;18.55;68.06
68226;BME280;55045;49.410;11.030;2023-05-27T08:19:30;98751.03;;;19.02;67.12
68226;BME280;55045;49.410;11.030;2023-05-27T08:22:42;98744.00;;;18.66;68.23
68226;BME280;55045;49.410;11.030;2023-05-27T08:26:06;98751.34;;;18.48;68.19
68226;BME280;55045;49.410;11.030;2023-05-27T08:29:35;98754.91;;;18.47;67.13
68226;BME280;55045;49.410;11.030;2023-05-27T08:32:58;98750.16;;;18.78;69.40
68226;BME280;55045;49.410;11.030;2023-05-27T08:36:02;98743.50;;;18.85;69.37
68226;BME280;55045;49.410;11.030;2023-05-27T08:39:05;98740.00;;;18.97;66.00
68226;BME280;55045;49.410;11.030;2023-05-27T08:42:16;98741.00;;;19.31;66.72
68226;BME280;55045;49.410;11.030;2023-05-27T08:45:19;98739.81;;;19.35;66.29
68226;BME280;55045;49.410;11.030;2023-05-27T08:48:25;98736.84;;;19.64;65.60
68226;BME280;55045;49.410;11.030;2023-05-27T08:51:29;98741.31;;;19.85;65.78
68226;BME280;55045;49.410;11.030;2023-05-27T08:54:32;98728.22;;;19.38;66.37
68226;BME280;55045;49.410;11.030;2023-05-27T08:57:39;98735.75;;;19.66;66.35
68226;BME280;55045;49.410;11.030;2023-05-27T09:00:45;98738.81;;;18.77;64.56
68226;BME280;55045;49.410;11.030;2023-05-27T09:03:55;98729.56;;;19.19;66.38
68226;BME280;55045;49.410;11.030;2023-05-27T09:06:58;98737.97;;;19.83;63.48
68226;BME280;55045;49.410;11.030;2023-05-27T09:10:04;98733.06;;;19.55;64.76
68226;BME280;55045;49.410;11.030;2023-05-27T09:13:08;98705.19;;;19.41;64.60
68226;BME280;55045;49.410;11.030;2023-05-27T09:16:12;98728.59;;;19.68;64.47
68226;BME280;55045;49.410;11.030;2023-05-27T09:19:20;98728.81;;;19.65;61.76
68226;BME280;55045;49.410;11.030;2023-05-27T09:22:29;98723.13;;;19.82;60.08
68226;BME280;55045;49.410;11.030;2023-05-27T09:25:32;98726.75;;;19.58;61.24
68226;BME280;55045;49.410;11.030;2023-05-27T09:28:36;98711.53;;;20.19;61.21
68226;BME280;55045;49.410;11.030;2023-05-27T09:34:37;98663.84;;;19.19;61.30
68226;BME280;55045;49.410;11.030;2023-05-27T09:37:41;98702.91;;;20.17;57.90
68226;BME280;55045;49.410;11.030;2023-05-27T09:40:47;98699.69;;;20.24;57.70
68226;BME280;55045;49.410;11.030;2023-05-27T09:43:53;98705.41;;;19.73;57.17
68226;BME280;55045;49.410;11.030;2023-05-27T09:46:58;98691.91;;;20.34;58.49
68226;BME280;55045;49.410;11.030;2023-05-27T09:50:03;98679.47;;;20.47;55.87
68226;BME280;55045;49.410;11.030;2023-05-27T09:53:08;98679.34;;;20.15;56.25
68226;BME280;55045;49.410;11.030;2023-05-27T09:56:14;98678.66;;;21.11;56.21
68226;BME280;55045;49.410;11.030;2023-05-27T09:59:17;98687.72;;;20.42;53.18
68226;BME280;55045;49.410;11.030;2023-05-27T10:02:21;98682.19;;;19.90;54.40
68226;BME280;55045;49.410;11.030;2023-05-27T10:05:27;98672.63;;;20.33;55.05
68226;BME280;55045;49.410;11.030;2023-05-27T10:08:30;98672.16;;;20.17;55.87
68226;BME280;55045;49.410;11.030;2023-05-27T10:11:34;98673.34;;;20.02;54.99
68226;BME280;55045;49.410;11.030;2023-05-27T10:14:39;98665.53;;;20.23;55.77
68226;BME280;55045;49.410;11.030;2023-05-27T10:17:47;98638.38;;;20.45;56.24
68226;BME280;55045;49.410;11.030;2023-05-27T10:20:52;98671.91;;;20.09;57.55
68226;BME280;55045;49.410;11.030;2023-05-27T10:23:56;98659.44;;;20.22;57.14
68226;BME280;55045;49.410;11.030;2023-05-27T10:27:00;98665.44;;;19.91;57.38
68226;BME280;55045;49.410;11.030;2023-05-27T10:30:06;98671.19;;;20.29;57.18
68226;BME280;55045;49.410;11.030;2023-05-27T10:33:10;98657.81;;;20.44;55.71
68226;BME280;55045;49.410;11.030;2023-05-27T10:36:15;98646.16;;;20.46;56.08
68226;BME280;55045;49.410;11.030;2023-05-27T10:39:19;98646.97;;;20.58;55.10
68226;BME280;55045;49.410;11.030;2023-05-27T10:42:22;98644.34;;;20.58;54.72
68226;BME280;55045;49.410;11.030;2023-05-27T10:45:31;98644.22;;;20.37;55.12
68226;BME280;55045;49.410;11.030;2023-05-27T10:48:36;98639.00;;;19.81;53.09
68226;BME280;55045;49.410;11.030;2023-05-27T10:51:43;98630.28;;;21.21;54.12
68226;BME280;55045;49.410;11.030;2023-05-27T10:54:51;98630.78;;;20.94;52.44
68226;BME280;55045;49.410;11.030;2023-05-27T10:57:56;98620.97;;;20.53;51.99
68226;BME280;55045;49.410;11.030;2023-05-27T11:01:06;98624.06;;;21.43;51.23
68226;BME280;55045;49.410;11.030;2023-05-27T11:04:10;98623.63;;;21.17;51.33
68226;BME280;55045;49.410;11.030;2023-05-27T11:07:18;98621.91;;;20.75;52.03
68226;BME280;55045;49.410;11.030;2023-05-27T11:10:22;98627.84;;;20.22;53.21
68226;BME280;55045;49.410;11.030;2023-05-27T11:13:30;98625.94;;;20.24;53.47
68226;BME280;55045;49.410;11.030;2023-05-27T11:16:34;98627.53;;;19.93;51.59
68226;BME280;55045;49.410;11.030;2023-05-27T11:19:38;98616.06;;;20.92;51.49
68226;BME280;55045;49.410;11.030;2023-05-27T11:22:49;98605.53;;;20.60;50.68
68226;BME280;55045;49.410;11.030;2023-05-27T11:25:52;98599.72;;;20.98;50.93
68226;BME280;55045;49.410;11.030;2023-05-27T11:28:57;98605.97;;;20.97;49.30
68226;BME280;55045;49.410;11.030;2023-05-27T11:32:00;98604.03;;;20.78;50.32
68226;BME280;55045;49.410;11.030;2023-05-27T11:35:04;98602.09;;;21.64;47.17
68226;BME280;55045;49.410;11.030;2023-05-27T11:38:17;98591.94;;;21.59;47.98
68226;BME280;55045;49.410;11.030;2023-05-27T11:41:22;98592.41;;;21.02;47.33
68226;BME280;55045;49.410;11.030;2023-05-27T11:44:26;98561.91;;;20.67;48.24
68226;BME280;55045;49.410;11.030;2023-05-27T11:47:29;98582.69;;;21.23;50.34
68226;BME280;55045;49.410;11.030;2023-05-27T11:50:34;98576.75;;;21.51;47.29
68226;BME280;55045;49.410;11.030;2023-05-27T11:53:40;98577.47;;;21.12;46.53
68226;BME280;55045;49.410;11.030;2023-05-27T11:56:44;98558.78;;;21.76;47.70
68226;BME280;55045;49.410;11.030;2023-05-27T11:59:48;98514.31;;;21.10;46.40
68226;BME280;55045;49.410;11.030;2023-05-27T12:02:51;98554.41;;;21.55;46.02
68226;BME280;55045;49.410;11.030;2023-05-27T12:05:54;98554.66;;;21.83;45.43
68226;BME280;55045;49.410;11.030;2023-05-27T12:08:59;98548.59;;;21.62;45.10
68226;BME280;55045;49.410;11.030;2023-05-27T12:12:06;98545.59;;;21.45;45.13
68226;BME280;55045;49.410;11.030;2023-05-27T12:15:10;98534.41;;;21.93;43.79
68226;BME280;55045;49.410;11.030;2023-05-27T12:18:13;98541.38;;;21.64;44.41
68226;BME280;55045;49.410;11.030;2023-05-27T12:21:17;98542.28;;;21.83;43.93
68226;BME280;55045;49.410;11.030;2023-05-27T12:24:23;98540.69;;;21.31;44.29
68226;BME280;55045;49.410;11.030;2023-05-27T12:27:26;98533.53;;;21.22;42.04
68226;BME280;55045;49.410;11.030;2023-05-27T12:30:30;98529.88;;;20.71;44.32
68226;BME280;55045;49.410;11.030;2023-05-27T12:33:33;98519.22;;;21.24;47.48
68226;BME280;55045;49.410;11.030;2023-05-27T12:36:36;98529.25;;;21.51;42.77
68226;BME280;55045;49.410;11.030;2023-05-27T12:39:42;98523.25;;;21.80;43.19
68226;BME280;55045;49.410;11.030;2023-05-27T12:42:46;98525.78;;;21.91;40.03
68226;BME280;55045;49.410;11.030;2023-05-27T12:45:49;98509.94;;;21.91;41.25
68226;BME280;55045;49.410;11.030;2023-05-27T12:48:54;98479.16;;;21.61;41.45
68226;BME280;55045;49.410;11.030;2023-05-27T12:51:58;98508.75;;;21.65;41.34
68226;BME280;55045;49.410;11.030;2023-05-27T12:55:03;98504.00;;;21.59;42.26
68226;BME280;55045;49.410;11.030;2023-05-27T12:58:06;98488.09;;;21.79;42.25
68226;BME280;55045;49.410;11.030;2023-05-27T13:01:09;98492.78;;;21.66;41.47
68226;BME280;55045;49.410;11.030;2023-05-27T13:04:12;98493.88;;;22.33;41.58
68226;BME280;55045;49.410;11.030;2023-05-27T13:07:16;98487.44;;;21.97;40.54
68226;BME280;55045;49.410;11.030;2023-05-27T13:10:21;98480.47;;;21.76;39.84
68226;BME280;55045;49.410;11.030;2023-05-27T13:13:24;98488.00;;;22.00;38.94
68226;BME280;55045;49.410;11.030;2023-05-27T13:16:27;98470.84;;;21.35;40.11
68226;BME280;55045;49.410;11.030;2023-05-27T13:19:31;98468.03;;;22.07;39.68
68226;BME280;55045;49.410;11.030;2023-05-27T13:22:34;98463.31;;;22.50;39.27
68226;BME280;55045;49.410;11.030;2023-05-27T13:25:39;98463.56;;;22.56;38.35
68226;BME280;55045;49.410;11.030;2023-05-27T13:28:42;98464.56;;;22.07;37.53
68226;BME280;55045;49.410;11.030;2023-05-27T13:31:46;98459.09;;;22.47;35.32
68226;BME280;55045;49.410;11.030;2023-05-27T13:34:49;98456.88;;;22.71;34.74
68226;BME280;55045;49.410;11.030;2023-05-27T13:37:53;98440.19;;;22.52;34.75
68226;BME280;55045;49.410;11.030;2023-05-27T13:40:58;98437.34;;;22.92;36.22
68226;BME280;55045;49.410;11.030;2023-05-27T13:44:07;98442.88;;;21.63;34.81
68226;BME280;55045;49.410;11.030;2023-05-27T13:47:11;98446.16;;;22.05;36.14
68226;BME280;55045;49.410;11.030;2023-05-27T13:50:16;98436.94;;;22.87;35.56
68226;BME280;55045;49.410;11.030;2023-05-27T13:53:20;98437.94;;;22.66;34.29
68226;BME280;55045;49.410;11.030;2023-05-27T13:56:24;98446.69;;;22.77;33.42
68226;BME280;55045;49.410;11.030;2023-05-27T13:59:27;98428.91;;;22.01;33.18
68226;BME280;55045;49.410;11.030;2023-05-27T14:02:31;98427.66;;;22.63;32.33
68226;BME280;55045;49.410;11.030;2023-05-27T14:05:34;98430.41;;;22.71;32.58
68226;BME280;55045;49.410;11.030;2023-05-27T14:08:37;98424.69;;;22.76;34.52
68226;BME280;55045;49.410;11.030;2023-05-27T14:11:42;98413.19;;;22.58;34.13
68226;BME280;55045;49.410;11.030;2023-05-27T14:14:45;98415.22;;;22.83;34.84
68226;BME280;55045;49.410;11.030;2023-05-27T14:17:49;98412.63;;;22.54;34.49
68226;BME280;55045;49.410;11.030;2023-05-27T14:20:52;98400.81;;;23.05;32.96
68226;BME280;55045;49.410;11.030;2023-05-27T14:23:55;98406.00;;;22.40;32.39
68226;BME280;55045;49.410;11.030;2023-05-27T14:27:00;98398.28;;;22.66;33.21
68226;BME280;55045;49.410;11.030;2023-05-27T14:30:04;98394.31;;;22.24;30.78
68226;BME280;55045;49.410;11.030;2023-05-27T14:33:08;98374.94;;;22.62;32.11
68226;BME280;55045;49.410;11.030;2023-05-27T14:36:12;98388.41;;;22.68;31.89
68226;BME280;55045;49.410;11.030;2023-05-27T14:39:16;98379.56;;;22.40;31.12
68226;BME280;55045;49.410;11.030;2023-05-27T14:42:20;98386.00;;;22.75;32.03
68226;BME280;55045;49.410;11.030;2023-05-27T14:45:24;98361.72;;;22.52;31.34
68226;BME280;55045;49.410;11.030;2023-05-27T14:48:28;98375.66;;;22.45;30.73
68226;BME280;55045;49.410;11.030;2023-05-27T14:51:32;98378.69;;;22.59;31.72
68226;BME280;55045;49.410;11.030;2023-05-27T14:54:35;98374.13;;;22.42;30.77
68226;BME280;55045;49.410;11.030;2023-05-27T14:57:40;98304.25;;;21.78;31.43
68226;BME280;55045;49.410;11.030;2023-05-27T15:00:43;98371.91;;;22.94;31.71
68226;BME280;55045;49.410;11.030;2023-05-27T15:03:47;98376.34;;;22.37;30.11
68226;BME280;55045;49.410;11.030;2023-05-27T15:06:50;98370.31;;;22.64;31.63
68226;BME280;55045;49.410;11.030;2023-05-27T15:09:53;98366.72;;;22.55;30.85
68226;BME280;55045;49.410;11.030;2023-05-27T15:12:58;98362.59;;;22.04;32.60
68226;BME280;55045;49.410;11.030;2023-05-27T15:16:01;98364.13;;;22.83;32.09
68226;BME280;55045;49.410;11.030;2023-05-27T15:19:04;98366.31;;;22.60;30.90
68226;BME280;55045;49.410;11.030;2023-05-27T15:22:08;98367.19;;;22.41;31.04
68226;BME280;55045;49.410;11.030;2023-05-27T15:30:03;98351.53;;;22.10;31.62
68226;BME280;55045;49.410;11.030;2023-05-27T15:34:28;98345.66;;;22.73;31.42
68226;BME280;55045;49.410;11.030;2023-05-27T15:37:32;98325.06;;;22.30;32.46
68226;BME280;55045;49.410;11.030;2023-05-27T15:40:36;98347.53;;;22.53;30.85
68226;BME280;55045;49.410;11.030;2023-05-27T15:43:42;98342.25;;;22.53;30.46
68226;BME280;55045;49.410;11.030;2023-05-27T15:46:46;98341.47;;;22.24;30.89
68226;BME280;55045;49.410;11.030;2023-05-27T15:49:50;98345.09;;;22.03;31.58
68226;BME280;55045;49.410;11.030;2023-05-27T15:52:53;98338.47;;;22.09;31.65
68226;BME280;55045;49.410;11.030;2023-05-27T15:55:57;98345.22;;;22.31;31.41
68226;BME280;55045;49.410;11.030;2023-05-27T15:59:00;98335.00;;;22.55;30.14
68226;BME280;55045;49.410;11.030;2023-05-27T16:02:03;98334.66;;;22.31;29.74
68226;BME280;55045;49.410;11.030;2023-05-27T16:05:09;98334.50;;;22.42;30.72
68226;BME280;55045;49.410;11.030;2023-05-27T16:08:15;98332.84;;;22.41;28.60
68226;BME280;55045;49.410;11.030;2023-05-27T16:11:19;98324.31;;;22.47;29.49
68226;BME280;55045;49.410;11.030;2023-05-27T16:14:22;98332.31;;;21.89;30.77
68226;BME280;55045;49.410;11.030;2023-05-27T16:17:25;98328.41;;;21.93;29.52
68226;BME280;55045;49.410;11.030;2023-05-27T16:20:31;98320.25;;;21.77;29.73